createdAt,value
2019-04-20T00:02:06.160Z,10.28
2019-04-20T00:04:33.846Z,14.03
2019-04-20T00:07:00.301Z,9.40
2019-04-20T00:09:34.856Z,11.05
2019-04-20T00:12:10.821Z,13.85
2019-04-20T00:14:36.284Z,14.68
2019-04-20T00:17:05.181Z,10.40
2019-04-20T00:19:42.307Z,16.95
2019-04-20T00:22:14.886Z,11.63
2019-04-20T00:25:04.242Z,13.85
2019-04-20T00:27:55.576Z,12.33
2019-04-20T00:30:28.793Z,10.58
2019-04-20T00:32:49.975Z,13.93
2019-04-20T00:35:10.475Z,14.85
2019-04-20T00:37:40.269Z,12.82
2019-04-20T00:40:09.959Z,12.30
2019-04-20T00:42:46.820Z,13.78
2019-04-20T00:45:19.093Z,11.45
2019-04-20T00:47:50.937Z,10.65
2019-04-20T00:50:31.065Z,11.95
2019-04-20T00:52:59.074Z,15.72
2019-04-20T00:55:16.913Z,13.43
2019-04-20T00:57:51.878Z,14.65
2019-04-20T01:00:39.766Z,17.50
2019-04-20T01:03:01.012Z,11.08
2019-04-20T01:05:58.454Z,10.48
2019-04-20T01:08:17.112Z,15.72
2019-04-20T01:10:51.464Z,11.90
2019-04-20T01:13:22.924Z,17.87
2019-04-20T01:15:55.380Z,13.43
2019-04-20T01:18:21.337Z,11.60
2019-04-20T01:20:51.446Z,13.40
2019-04-20T01:23:24.337Z,13.58
2019-04-20T01:26:01.438Z,12.88
2019-04-20T01:28:37.492Z,12.18
2019-04-20T01:31:06.198Z,16.00
2019-04-20T01:33:41.283Z,12.03
2019-04-20T01:36:24.017Z,14.90
2019-04-20T01:38:44.806Z,14.65
2019-04-20T01:40:59.729Z,12.20
2019-04-20T01:43:29.177Z,14.65
2019-04-20T01:46:05.059Z,11.25
2019-04-20T01:48:33.963Z,13.30
2019-04-20T01:51:07.249Z,13.90
2019-04-20T01:53:56.565Z,14.47
2019-04-20T01:56:16.973Z,14.38
2019-04-20T01:59:10.214Z,12.47
2019-04-20T02:01:51.623Z,16.05
2019-04-20T02:04:27.174Z,14.68
2019-04-20T02:06:56.174Z,13.15
2019-04-20T02:09:26.020Z,14.68
2019-04-20T02:11:54.962Z,11.55
2019-04-20T02:14:32.203Z,14.40
2019-04-20T02:17:04.307Z,11.90
2019-04-20T02:19:38.085Z,11.25
2019-04-20T02:22:11.309Z,11.10
2019-04-20T02:24:29.795Z,11.97
2019-04-20T02:26:59.853Z,11.12
2019-04-20T02:29:50.707Z,10.78
2019-04-20T02:32:45.642Z,10.18
2019-04-20T02:35:03.396Z,13.70
2019-04-20T02:40:12.705Z,15.30
2019-04-20T02:42:46.341Z,14.45
2019-04-20T02:45:17.402Z,18.20
2019-04-20T02:50:28.674Z,12.40
2019-04-20T02:52:56.913Z,12.40
2019-04-20T02:55:16.983Z,14.35
2019-04-20T02:57:53.020Z,14.40
2019-04-20T03:00:12.327Z,16.82
2019-04-20T03:02:35.878Z,12.65
2019-04-20T03:05:06.353Z,13.18
2019-04-20T03:07:35.474Z,10.80
2019-04-20T03:10:11.255Z,11.50
2019-04-20T03:12:43.861Z,14.73
2019-04-20T03:15:13.913Z,12.73
2019-04-20T03:17:51.025Z,12.28
2019-04-20T03:20:23.293Z,15.28
2019-04-20T03:23:18.790Z,12.80
2019-04-20T03:25:53.502Z,12.23
2019-04-20T03:28:19.478Z,15.03
2019-04-20T03:34:05.713Z,13.55
2019-04-20T03:36:13.099Z,13.85
2019-04-20T03:38:33.034Z,11.05
2019-04-20T03:40:56.571Z,14.00
2019-04-20T03:43:13.923Z,13.18
2019-04-20T03:45:51.800Z,14.00
2019-04-20T03:48:33.517Z,11.22
2019-04-20T03:51:08.989Z,10.70
2019-04-20T03:53:39.741Z,13.68
2019-04-20T03:56:19.099Z,11.30
2019-04-20T03:58:50.377Z,16.82
2019-04-20T04:01:35.852Z,17.02
2019-04-20T04:04:17.943Z,18.07
2019-04-20T04:06:37.358Z,12.78
2019-04-20T04:09:10.482Z,12.07
2019-04-20T04:11:46.141Z,11.73
2019-04-20T04:14:00.792Z,10.45
2019-04-20T04:16:37.446Z,14.90
2019-04-20T04:19:11.896Z,18.65
2019-04-20T04:21:46.831Z,10.82
2019-04-20T04:24:16.969Z,11.35
2019-04-20T04:26:52.643Z,15.30
2019-04-20T04:29:34.615Z,14.35
2019-04-20T04:32:06.762Z,21.50
2019-04-20T04:34:31.025Z,18.12
2019-04-20T04:37:02.125Z,14.18
2019-04-20T04:39:30.993Z,13.85
2019-04-20T04:42:10.232Z,16.60
2019-04-20T04:44:26.292Z,13.35
2019-04-20T04:46:53.499Z,15.20
2019-04-20T04:49:24.205Z,12.10
2019-04-20T04:51:55.301Z,18.17
2019-04-20T04:54:28.836Z,14.05
2019-04-20T04:56:48.753Z,19.57
2019-04-20T04:59:19.290Z,19.55
2019-04-20T05:01:51.793Z,14.98
2019-04-20T05:04:40.474Z,18.90
2019-04-20T05:07:07.292Z,13.45
2019-04-20T05:09:23.846Z,11.12
2019-04-20T05:12:00.469Z,15.13
2019-04-20T05:14:38.755Z,16.90
2019-04-20T05:17:11.644Z,15.38
2019-04-20T05:19:47.519Z,15.05
2019-04-20T05:22:22.930Z,14.35
2019-04-20T05:24:56.849Z,15.88
2019-04-20T05:27:39.216Z,17.70
2019-04-20T05:29:55.003Z,16.45
2019-04-20T05:32:39.801Z,16.80
2019-04-20T05:35:14.685Z,15.95
2019-04-20T05:37:51.307Z,21.87
2019-04-20T05:40:22.450Z,24.40
2019-04-20T05:42:54.407Z,21.93
2019-04-20T05:45:22.358Z,21.57
2019-04-20T05:47:55.429Z,21.40
2019-04-20T05:50:33.269Z,19.45
2019-04-20T05:53:06.055Z,19.85
2019-04-20T05:55:35.865Z,21.97
2019-04-20T05:58:04.773Z,21.02
2019-04-20T06:00:43.070Z,22.02
2019-04-20T06:03:06.736Z,17.25
2019-04-20T06:05:49.505Z,21.15
2019-04-20T06:08:05.399Z,21.97
2019-04-20T06:10:48.066Z,21.73
2019-04-20T06:13:16.035Z,22.50
2019-04-20T06:15:59.823Z,24.20
2019-04-20T06:18:24.235Z,24.40
2019-04-20T06:21:16.525Z,28.05
2019-04-20T06:23:41.335Z,22.22
2019-04-20T06:26:26.789Z,24.20
2019-04-20T06:28:38.758Z,21.27
2019-04-20T06:31:18.019Z,26.80
2019-04-20T06:36:58.361Z,23.15
2019-04-20T06:39:19.959Z,28.05
2019-04-20T06:44:26.490Z,22.00
2019-04-20T06:46:59.020Z,22.32
2019-04-20T06:49:32.063Z,23.73
2019-04-20T06:52:00.414Z,25.85
2019-04-20T06:54:35.871Z,28.38
2019-04-20T06:57:11.485Z,24.47
2019-04-20T06:59:57.830Z,32.10
2019-04-20T07:02:17.302Z,33.18
2019-04-20T07:07:14.583Z,25.17
2019-04-20T07:09:52.902Z,29.00
2019-04-20T07:12:13.114Z,25.85
2019-04-20T07:14:39.423Z,24.23
2019-04-20T07:17:26.987Z,27.82
2019-04-20T07:19:56.473Z,25.08
2019-04-20T07:25:01.216Z,26.77
2019-04-20T07:27:35.450Z,34.20
2019-04-20T07:30:10.727Z,22.10
2019-04-20T07:32:46.326Z,25.37
2019-04-20T07:35:08.782Z,26.42
2019-04-20T07:38:11.542Z,41.65
2019-04-20T07:40:16.321Z,42.15
2019-04-20T07:42:46.786Z,27.60
2019-04-20T07:45:21.596Z,25.77
2019-04-20T07:47:55.296Z,27.90
2019-04-20T07:50:12.882Z,25.20
2019-04-20T07:52:40.340Z,27.85
2019-04-20T07:55:33.154Z,23.67
2019-04-20T07:57:47.180Z,30.25
2019-04-20T08:00:27.903Z,26.40
2019-04-20T08:03:12.534Z,24.12
2019-04-20T08:05:34.653Z,22.40
2019-04-20T08:08:08.388Z,26.57
2019-04-20T08:10:47.387Z,27.50
2019-04-20T08:18:21.342Z,26.55
2019-04-20T08:20:52.640Z,22.85
2019-04-20T08:23:23.100Z,23.22
2019-04-20T08:25:44.465Z,24.10
2019-04-20T08:28:06.391Z,24.18
2019-04-20T08:31:00.671Z,29.10
2019-04-20T08:33:43.613Z,23.90
2019-04-20T08:36:17.009Z,23.02
2019-04-20T08:41:16.867Z,23.10
2019-04-20T08:43:57.241Z,21.77
2019-04-20T08:46:20.708Z,25.43
2019-04-20T08:48:50.959Z,26.90
2019-04-20T08:51:26.019Z,21.85
2019-04-20T08:53:51.754Z,25.88
2019-04-20T08:56:18.541Z,22.65
2019-04-20T08:58:36.592Z,25.05
2019-04-20T09:01:08.749Z,30.10
2019-04-20T09:03:51.206Z,25.32
2019-04-20T09:06:22.234Z,27.95
2019-04-20T09:08:50.831Z,21.75
2019-04-20T09:11:39.632Z,25.02
2019-04-20T09:13:48.457Z,22.87
2019-04-20T09:16:15.265Z,24.95
2019-04-20T09:18:52.518Z,22.77
2019-04-20T09:21:33.097Z,24.90
2019-04-20T09:24:17.237Z,27.30
2019-04-20T09:26:37.655Z,21.62
2019-04-20T09:29:12.671Z,22.95
2019-04-20T09:31:39.293Z,19.67
2019-04-20T09:34:15.764Z,23.42
2019-04-20T09:36:49.595Z,21.33
2019-04-20T09:39:21.424Z,22.62
2019-04-20T09:42:03.787Z,21.55
2019-04-20T09:44:20.027Z,23.42
2019-04-20T09:46:54.826Z,23.85
2019-04-20T09:49:37.802Z,27.37
2019-04-20T09:52:06.554Z,24.82
2019-04-20T09:54:41.604Z,21.55
2019-04-20T09:57:17.512Z,18.02
2019-04-20T09:59:45.159Z,20.95
2019-04-20T10:02:06.773Z,18.70
2019-04-20T10:04:27.649Z,24.12
2019-04-20T10:07:00.049Z,27.45
2019-04-20T10:09:34.439Z,29.37
2019-04-20T10:11:59.743Z,21.07
2019-04-20T10:14:29.295Z,25.60
2019-04-20T10:16:59.953Z,24.87
2019-04-20T10:19:33.670Z,21.87
2019-04-20T10:22:00.593Z,21.33
2019-04-20T10:24:30.636Z,25.17
2019-04-20T10:27:02.901Z,20.70
2019-04-20T10:29:33.611Z,22.17
2019-04-20T10:32:07.942Z,28.38
2019-04-20T10:34:34.758Z,19.60
2019-04-20T10:37:06.024Z,19.48
2019-04-20T10:39:38.401Z,19.77
2019-04-20T10:42:08.183Z,22.60
2019-04-20T10:44:38.910Z,17.05
2019-04-20T10:47:09.191Z,18.25
2019-04-20T10:49:38.937Z,16.30
2019-04-20T10:52:09.724Z,16.95
2019-04-20T10:54:40.616Z,22.50
2019-04-20T10:57:10.292Z,15.63
2019-04-20T10:59:39.777Z,18.15
2019-04-20T11:02:09.971Z,14.43
2019-04-20T11:04:40.933Z,15.88
2019-04-20T11:07:10.507Z,15.30
2019-04-20T11:09:40.741Z,17.40
2019-04-20T11:12:10.541Z,19.10
2019-04-20T11:14:44.308Z,16.02
2019-04-20T11:17:14.131Z,15.88
2019-04-20T11:19:43.631Z,14.40
2019-04-20T11:22:14.290Z,13.18
2019-04-20T11:24:44.083Z,11.68
2019-04-20T11:27:14.279Z,11.75
2019-04-20T11:29:44.415Z,12.98
2019-04-20T11:32:14.245Z,9.58
2019-04-20T11:34:45.306Z,11.40
2019-04-20T11:37:15.224Z,9.33
2019-04-20T11:39:45.283Z,6.92
2019-04-20T11:42:15.833Z,11.45
2019-04-20T11:44:46.715Z,4.95
2019-04-20T11:47:16.753Z,4.78
2019-04-20T11:49:46.469Z,6.65
2019-04-20T11:52:18.325Z,7.00
2019-04-20T11:54:48.394Z,5.05
2019-04-20T11:57:19.570Z,8.13
2019-04-20T11:59:49.141Z,7.45
2019-04-20T12:02:30.293Z,10.40
2019-04-20T12:05:13.106Z,6.80
2019-04-20T12:07:35.248Z,8.48
2019-04-20T12:10:13.160Z,4.47
2019-04-20T12:12:42.653Z,6.40
2019-04-20T12:15:10.549Z,8.53
2019-04-20T12:17:41.703Z,5.33
2019-04-20T12:20:12.213Z,7.45
2019-04-20T12:22:42.111Z,6.12
2019-04-20T12:25:12.124Z,5.12
2019-04-20T12:27:50.733Z,6.28
2019-04-20T12:30:13.328Z,7.17
2019-04-20T12:32:46.689Z,7.83
2019-04-20T12:35:16.095Z,6.25
2019-04-20T12:37:47.220Z,8.13
2019-04-20T12:40:17.984Z,5.80
2019-04-20T12:42:48.797Z,5.75
2019-04-20T12:45:21.714Z,6.40
2019-04-20T12:47:51.598Z,4.22
2019-04-20T12:50:21.890Z,5.97
2019-04-20T12:52:52.557Z,5.70
2019-04-20T12:55:22.859Z,10.65
2019-04-20T12:57:52.534Z,5.50
2019-04-20T13:00:27.697Z,5.53
2019-04-20T13:02:57.497Z,5.12
2019-04-20T13:05:27.709Z,6.35
2019-04-20T13:08:00.782Z,7.60
2019-04-20T13:10:29.587Z,11.25
2019-04-20T13:13:08.081Z,4.95
2019-04-20T13:15:40.541Z,7.17
2019-04-20T13:18:11.519Z,7.28
2019-04-20T13:20:41.843Z,6.45
2019-04-20T13:23:11.413Z,11.03
2019-04-20T13:25:41.240Z,7.00
2019-04-20T13:28:10.787Z,8.83
2019-04-20T13:30:40.228Z,6.72
2019-04-20T13:33:10.086Z,7.67
2019-04-20T13:35:40.533Z,9.60
2019-04-20T13:38:10.114Z,7.85
2019-04-20T13:40:39.823Z,6.28
2019-04-20T13:43:09.909Z,7.08
2019-04-20T13:45:39.699Z,7.30
2019-04-20T13:48:09.233Z,11.22
2019-04-20T13:50:39.818Z,5.62
2019-04-20T13:53:09.821Z,9.05
2019-04-20T13:55:40.115Z,8.43
2019-04-20T13:58:14.003Z,7.22
2019-04-20T14:00:48.117Z,6.00
2019-04-20T14:03:18.731Z,8.23
2019-04-20T14:05:50.831Z,6.12
2019-04-20T14:08:23.638Z,9.23
2019-04-20T14:10:53.438Z,8.23
2019-04-20T14:13:25.698Z,6.65
2019-04-20T14:15:55.461Z,9.68
2019-04-20T14:18:25.260Z,9.93
2019-04-20T14:20:56.188Z,10.80
2019-04-20T14:23:27.053Z,7.78
2019-04-20T14:25:57.031Z,6.55
2019-04-20T14:28:27.045Z,9.38
2019-04-20T14:30:58.134Z,11.22
2019-04-20T14:33:28.618Z,9.03
2019-04-20T14:35:59.091Z,7.72
2019-04-20T14:38:28.727Z,7.05
2019-04-20T14:41:00.078Z,8.53
2019-04-20T14:43:31.731Z,7.83
2019-04-20T14:46:00.993Z,8.83
2019-04-20T14:48:31.046Z,10.68
2019-04-20T14:51:01.544Z,9.03
2019-04-20T14:53:31.599Z,10.38
2019-04-20T14:56:01.847Z,7.92
2019-04-20T14:58:41.415Z,9.30
2019-04-20T15:01:28.201Z,11.80
2019-04-20T15:04:05.421Z,11.43
2019-04-20T15:06:29.713Z,14.38
2019-04-20T15:08:59.299Z,11.63
2019-04-20T15:11:28.775Z,8.35
2019-04-20T15:13:58.568Z,9.43
2019-04-20T15:16:28.733Z,9.28
2019-04-20T15:19:00.023Z,8.05
2019-04-20T15:21:37.737Z,9.73
2019-04-20T15:24:09.353Z,9.15
2019-04-20T15:26:40.330Z,8.85
2019-04-20T15:29:10.511Z,9.33
2019-04-20T15:31:41.958Z,11.05
2019-04-20T15:34:12.835Z,8.20
2019-04-20T15:36:44.305Z,10.10
2019-04-20T15:39:14.930Z,9.05
2019-04-20T15:41:45.313Z,9.20
2019-04-20T15:44:15.764Z,11.35
2019-04-20T15:46:45.635Z,11.25
2019-04-20T15:49:15.845Z,10.20
2019-04-20T15:51:46.045Z,9.53
2019-04-20T15:54:15.762Z,11.15
2019-04-20T15:56:52.818Z,7.10
2019-04-20T15:59:16.785Z,9.55
2019-04-20T16:01:49.289Z,9.43
2019-04-20T16:04:39.824Z,8.45
2019-04-20T16:07:08.604Z,8.93
2019-04-20T16:09:39.947Z,9.20
2019-04-20T16:12:10.928Z,9.90
2019-04-20T16:14:41.655Z,14.20
2019-04-20T16:17:12.489Z,9.13
2019-04-20T16:19:51.254Z,11.38
2019-04-20T16:22:15.513Z,13.65
2019-04-20T16:24:53.733Z,10.10
2019-04-20T16:27:31.758Z,10.88
2019-04-20T16:30:02.080Z,9.58
2019-04-20T16:32:34.363Z,15.78
2019-04-20T16:35:06.642Z,9.33
2019-04-20T16:37:36.448Z,11.48
2019-04-20T16:40:08.023Z,11.60
2019-04-20T16:42:40.957Z,11.90
2019-04-20T16:45:11.461Z,13.43
2019-04-20T16:47:42.121Z,11.18
2019-04-20T16:50:13.109Z,10.82
2019-04-20T16:52:43.297Z,8.05
2019-04-20T16:55:12.997Z,10.35
2019-04-20T16:57:44.999Z,8.88
2019-04-20T17:00:15.640Z,9.48
2019-04-20T17:02:45.461Z,10.85
2019-04-20T17:05:16.748Z,38.85
2019-04-20T17:07:48.969Z,10.10
2019-04-20T17:10:23.557Z,7.03
2019-04-20T17:12:52.012Z,12.03
2019-04-20T17:15:21.643Z,10.98
2019-04-20T17:17:52.895Z,9.20
2019-04-20T17:20:25.097Z,7.75
2019-04-20T17:22:54.249Z,13.85
2019-04-20T17:25:23.985Z,10.50
2019-04-20T17:27:55.457Z,11.55
2019-04-20T17:30:31.530Z,10.65
2019-04-20T17:33:10.224Z,8.53
2019-04-20T17:35:52.609Z,7.25
2019-04-20T17:38:11.168Z,8.28
2019-04-20T17:41:00.008Z,11.43
2019-04-20T17:43:24.547Z,10.45
2019-04-20T17:45:52.339Z,8.13
2019-04-20T17:48:23.359Z,7.97
2019-04-20T17:51:07.902Z,8.85
2019-04-20T17:53:37.450Z,12.23
2019-04-20T17:56:00.751Z,10.15
2019-04-20T17:58:34.422Z,8.10
2019-04-20T18:01:20.477Z,9.88
2019-04-20T18:04:10.820Z,8.40
2019-04-20T18:06:32.096Z,7.20
2019-04-20T18:09:02.150Z,8.73
2019-04-20T18:11:21.843Z,9.40
2019-04-20T18:13:58.357Z,10.20
2019-04-20T18:16:46.532Z,11.25
2019-04-20T18:19:08.528Z,14.90
2019-04-20T18:21:43.428Z,19.97
2019-04-20T18:24:24.186Z,17.02
2019-04-20T18:27:02.930Z,23.32
2019-04-20T18:29:38.394Z,14.40
2019-04-20T18:32:07.345Z,11.18
2019-04-20T18:34:38.638Z,13.35
2019-04-20T18:37:12.919Z,19.48
2019-04-20T18:39:46.283Z,11.03
2019-04-20T18:42:18.582Z,21.07
2019-04-20T18:45:02.592Z,10.43
2019-04-20T18:47:34.356Z,14.03
2019-04-20T18:49:53.798Z,11.53
2019-04-20T18:52:15.716Z,11.57
2019-04-20T18:54:48.439Z,13.43
2019-04-20T18:57:21.811Z,10.75
2019-04-20T18:59:52.955Z,11.95
2019-04-20T19:02:26.913Z,14.23
2019-04-20T19:04:50.539Z,13.15
2019-04-20T19:07:20.140Z,17.73
2019-04-20T19:09:53.261Z,17.20
2019-04-20T19:12:30.005Z,19.33
2019-04-20T19:15:12.039Z,16.12
2019-04-20T19:17:46.662Z,15.48
2019-04-20T19:20:20.597Z,11.73
2019-04-20T19:22:52.370Z,17.05
2019-04-20T19:25:28.141Z,13.15
2019-04-20T19:27:56.544Z,14.05
2019-04-20T19:30:35.427Z,18.52
2019-04-20T19:33:14.529Z,15.58
2019-04-20T19:35:40.591Z,17.55
2019-04-20T19:38:09.622Z,20.17
2019-04-20T19:40:42.955Z,16.00
2019-04-20T19:43:13.734Z,16.93
2019-04-20T19:45:56.929Z,19.48
2019-04-20T19:48:22.372Z,17.17
2019-04-20T19:50:59.039Z,14.40
2019-04-20T19:53:31.878Z,17.42
2019-04-20T19:55:56.622Z,16.33
2019-04-20T19:58:26.457Z,16.70
2019-04-20T20:00:55.375Z,17.02
2019-04-20T20:03:23.917Z,15.98
2019-04-20T20:05:54.816Z,18.52
2019-04-20T20:08:29.463Z,15.45
2019-04-20T20:10:59.216Z,19.63
2019-04-20T20:13:36.260Z,23.47
2019-04-20T20:16:06.017Z,16.85
2019-04-20T20:18:46.533Z,16.70
2019-04-20T20:21:15.233Z,16.27
2019-04-20T20:23:32.204Z,18.25
2019-04-20T20:26:05.071Z,19.48
2019-04-20T20:28:43.671Z,22.30
2019-04-20T20:31:17.011Z,20.32
2019-04-20T20:33:49.363Z,18.67
2019-04-20T20:36:12.762Z,19.02
2019-04-20T20:38:43.682Z,20.97
2019-04-20T20:41:19.818Z,19.80
2019-04-20T20:43:52.379Z,21.12
2019-04-20T20:46:24.027Z,20.57
2019-04-20T20:49:06.231Z,19.27
2019-04-20T20:51:41.092Z,25.08
2019-04-20T20:53:56.421Z,20.30
2019-04-20T20:56:24.397Z,21.20
2019-04-20T20:59:13.974Z,21.12
2019-04-20T21:01:48.369Z,18.55
2019-04-20T21:04:09.884Z,23.00
2019-04-20T21:06:40.260Z,23.83
2019-04-20T21:09:10.379Z,20.32
2019-04-20T21:11:42.286Z,24.63
2019-04-20T21:14:13.525Z,24.75
2019-04-20T21:16:52.207Z,22.42
2019-04-20T21:19:28.666Z,20.95
2019-04-20T21:21:55.025Z,25.05
2019-04-20T21:24:19.699Z,23.77
2019-04-20T21:26:49.651Z,23.47
2019-04-20T21:29:26.497Z,25.27
2019-04-20T21:31:57.764Z,25.92
2019-04-20T21:34:22.338Z,25.32
2019-04-20T21:36:56.168Z,21.35
2019-04-20T21:39:34.605Z,23.60
2019-04-20T21:42:03.967Z,22.73
2019-04-20T21:44:34.769Z,25.80
2019-04-20T21:46:59.916Z,20.80
2019-04-20T21:49:42.990Z,22.20
2019-04-20T21:52:03.607Z,22.60
2019-04-20T21:54:31.950Z,24.18
2019-04-20T21:57:05.769Z,23.92
2019-04-20T21:59:41.947Z,20.08
2019-04-20T22:02:12.900Z,29.95
2019-04-20T22:04:37.545Z,18.93
2019-04-20T22:07:08.082Z,25.27
2019-04-20T22:09:43.460Z,21.05
2019-04-20T22:12:09.799Z,24.37
2019-04-20T22:14:39.904Z,20.65
2019-04-20T22:17:09.757Z,22.82
2019-04-20T22:19:47.289Z,21.42
2019-04-20T22:22:25.076Z,22.62
2019-04-20T22:24:56.431Z,25.30
2019-04-20T22:27:18.544Z,22.25
2019-04-20T22:29:44.085Z,26.27
2019-04-20T22:32:17.297Z,23.15
2019-04-20T22:34:47.497Z,23.87
2019-04-20T22:37:21.986Z,20.80
2019-04-20T22:39:54.120Z,21.82
2019-04-20T22:42:22.221Z,21.00
2019-04-20T22:44:56.629Z,24.70
2019-04-20T22:47:27.022Z,20.08
2019-04-20T22:50:15.195Z,19.07
2019-04-20T22:52:41.069Z,19.85
2019-04-20T22:55:22.401Z,23.02
2019-04-20T22:57:41.927Z,25.70
2019-04-20T23:00:06.786Z,18.62
2019-04-20T23:02:31.162Z,22.95
2019-04-20T23:05:00.976Z,18.23
2019-04-20T23:07:32.715Z,22.40
2019-04-20T23:10:04.763Z,22.70
2019-04-20T23:12:33.941Z,22.02
2019-04-20T23:15:04.843Z,17.55
2019-04-20T23:17:40.018Z,21.68
2019-04-20T23:20:13.293Z,18.85
2019-04-20T23:22:42.274Z,20.35
2019-04-20T23:25:09.193Z,21.55
2019-04-20T23:27:40.333Z,22.95
2019-04-20T23:30:19.440Z,22.80
2019-04-20T23:32:42.178Z,24.70
2019-04-20T23:35:18.152Z,18.87
2019-04-20T23:37:46.334Z,18.37
2019-04-20T23:40:16.790Z,16.37
2019-04-20T23:42:57.879Z,21.82
2019-04-20T23:45:38.751Z,22.52
2019-04-20T23:48:23.674Z,21.62
2019-04-20T23:51:08.288Z,22.20
2019-04-20T23:53:37.182Z,21.80
2019-04-20T23:55:57.482Z,21.20
2019-04-20T23:58:30.976Z,18.65
